Main page
METAR-TAF:

METAR-TAF

Airports :

Chania International Airport

Chania, Crete, Greece

latitude: 35-29N, longitude: 024-07E, elevation: 146 m

Current weather observation

The report was made 42 minutes ago, at 23:50 UTC
Wind 5 kt from the South/Southeast
Temperature 10°C
Humidity 87%
Pressure 1012 hPa
Visibility 10 km or more
Few clouds at a height of 2000 ft
Broken clouds at a height of 8000 ft

METAR: LGSA 262350Z 15005KT 9999 FEW020 BKN080 10/08 Q1012

Time: 02:32 (00:32 UTC)

Forecast

The report was made 1 hour and 32 minutes ago, at 23:00 UTC
Forecast valid from 27 at 00 UTC to 27 at 24 UTC
Wind 5 kt from variable directions
Visibility 10 km or more
Few clouds at a height of 2000 ft
Scattered clouds at a height of 8000 ft
Temporary
from 27 at 00 UTC to 27 at 06 UTC
Wind 12 kt from the South
Becoming
from 27 at 10 UTC to 27 at 12 UTC
Wind 20 kt from the West with gusts up to 30 kt

TAF: LGSA 262300Z 2700/2724 VRB05KT 9999 FEW020 SCT080 TEMPO 2700/2706 18012KT BECMG 2710/2712 28020G30KT

Weather observations and forecasts of more than 4000 airports (METAR and TAF reports).

The available stations are represented by yellow and red dots on the map.

Hover mouse over dot to see the name of the station.

Then click to see weather observations and forecasts.

To change the map : click on the green buttons with a black cross to zoom in, on the green button with a dash to zoom out, or on the green arrows for adjacent maps.


METAR-TAF: